Portada
METAR-TAF:

METAR-TAF

Aeropuertos :

Bilbao, España

Aeropuerto de Bilbao

latitud: 43-18N, longitud: 002-56W, altitud: 42 m

Observación

El informe se hizo hace 11 minutos, a las 22:30 UTC
Viento 1 kt con dirección variable
Temperatura 19°C
Humedad 78%
Presión 1022 hPa
Visibilidad 10 km o más

METAR: LEBB 222230Z AUTO VRB01KT 9999 BKN036/// 19/15 Q1022

Hora: 00:41 (22:41 UTC)

Pronóstico

El informe se hizo hace 5 horas y 41 minutos, a las 17:00 UTC
Pronóstico válido del 22 a las 18 UTC al 23 a las 18 UTC
Viento 10 kt del norte-noroeste
Visibilidad 10 km o más
sin nubes por debajo de 1500 m y sin presencia de cumulonimbus.
Evolucionando progresivamente
del 22 a las 20 UTC al 22 a las 24 UTC
Viento 4 kt del oeste-suroeste
Evolucionando progresivamente
del 23 a las 10 UTC al 23 a las 12 UTC
Viento 10 kt del norte-noroeste

TAF: LEBB 221700Z 2218/2318 33010KT CAVOK TX26/2315Z TN15/2306Z BECMG 2220/2224 25004KT BECMG 2310/2312 33010KT

Observaciones y pronósticos meteorológicos de más de 4000 aeropuertos (mensajes METAR y TAF).

Los puntos amarillos y rojos representan las estaciones disponibles.

Ponga el ratón en el punto deseado para ver el nombre de la estación.

Haga clic para ver las observaciones y los pronósticos meteorológicos.

Para cambiar el mapa : haga clic en los botones verdes con una cruz de color negro para hacer un zoom, en el botón verde con un guión para alejar o en las flechas verdes para mapas adyacentes.


METAR-TAF: